createdAt,value
2022-07-27T00:02:06.435Z,9.93
2022-07-27T00:04:34.118Z,9.10
2022-07-27T00:07:02.123Z,9.48
2022-07-27T00:09:29.842Z,9.23
2022-07-27T00:11:58.593Z,9.60
2022-07-27T00:14:26.306Z,9.88
2022-07-27T00:16:54.955Z,10.32
2022-07-27T00:19:23.949Z,8.05
2022-07-27T00:21:51.536Z,8.77
2022-07-27T00:24:21.291Z,10.55
2022-07-27T00:26:48.818Z,11.07
2022-07-27T00:29:16.615Z,9.00
2022-07-27T00:31:44.484Z,8.45
2022-07-27T00:34:12.396Z,8.25
2022-07-27T00:36:40.044Z,9.05
2022-07-27T00:39:08.305Z,9.05
2022-07-27T00:41:36.204Z,8.40
2022-07-27T00:44:06.776Z,9.60
2022-07-27T00:46:35.927Z,8.90
2022-07-27T00:49:03.766Z,8.43
2022-07-27T00:51:33.083Z,9.27
2022-07-27T00:54:01.377Z,8.02
2022-07-27T00:56:29.035Z,8.80
2022-07-27T00:58:58.288Z,7.53
2022-07-27T01:01:26.116Z,7.20
2022-07-27T01:03:53.889Z,8.45
2022-07-27T01:06:26.970Z,9.20
2022-07-27T01:09:16.411Z,8.73
2022-07-27T01:11:45.212Z,8.57
2022-07-27T01:14:13.970Z,8.70
2022-07-27T01:16:41.708Z,8.93
2022-07-27T01:19:10.951Z,9.43
2022-07-27T01:21:39.106Z,8.55
2022-07-27T01:24:07.712Z,8.88
2022-07-27T01:26:39.016Z,8.20
2022-07-27T01:29:07.097Z,8.52
2022-07-27T01:31:34.772Z,10.80
2022-07-27T01:34:04.298Z,9.75
2022-07-27T01:36:32.147Z,10.70
2022-07-27T01:38:59.903Z,8.38
2022-07-27T01:41:27.478Z,8.23
2022-07-27T01:43:55.401Z,9.15
2022-07-27T01:46:23.022Z,9.05
2022-07-27T01:48:50.772Z,10.63
2022-07-27T01:51:18.584Z,10.13
2022-07-27T01:53:46.208Z,10.13
2022-07-27T01:56:14.257Z,8.60
2022-07-27T01:58:42.666Z,7.93
2022-07-27T02:01:10.686Z,9.30
2022-07-27T02:03:38.388Z,8.68
2022-07-27T02:06:06.171Z,9.88
2022-07-27T02:08:35.075Z,9.52
2022-07-27T02:11:21.459Z,8.95
2022-07-27T02:13:49.898Z,10.30
2022-07-27T02:16:18.262Z,8.27
2022-07-27T02:18:46.181Z,8.90
2022-07-27T02:21:16.861Z,12.82
2022-07-27T02:23:45.489Z,10.18
2022-07-27T02:26:14.262Z,8.93
2022-07-27T02:28:42.261Z,9.68
2022-07-27T02:31:09.828Z,9.85
2022-07-27T02:33:37.537Z,10.27
2022-07-27T02:36:05.520Z,9.70
2022-07-27T02:38:33.204Z,9.68
2022-07-27T02:41:00.842Z,10.23
2022-07-27T02:43:28.814Z,9.00
2022-07-27T02:45:56.592Z,9.43
2022-07-27T02:48:24.142Z,11.07
2022-07-27T02:50:52.027Z,9.32
2022-07-27T02:53:19.729Z,10.68
2022-07-27T02:55:47.288Z,9.27
2022-07-27T02:58:15.120Z,10.40
2022-07-27T03:00:42.778Z,10.25
2022-07-27T03:03:10.481Z,10.43
2022-07-27T03:05:38.675Z,10.90
2022-07-27T03:08:06.686Z,10.52
2022-07-27T03:10:34.397Z,11.00
2022-07-27T03:13:02.191Z,11.27
2022-07-27T03:15:29.987Z,9.95
2022-07-27T03:17:57.603Z,8.98
2022-07-27T03:20:25.433Z,7.78
2022-07-27T03:22:54.226Z,8.45
2022-07-27T03:25:21.758Z,9.25
2022-07-27T03:27:49.530Z,8.20
2022-07-27T03:30:17.082Z,9.02
2022-07-27T03:32:44.886Z,9.48
2022-07-27T03:35:13.015Z,10.05
2022-07-27T03:37:40.681Z,10.10
2022-07-27T03:40:08.688Z,9.73
2022-07-27T03:42:36.805Z,9.80
2022-07-27T03:45:04.831Z,8.82
2022-07-27T03:47:32.434Z,8.55
2022-07-27T03:50:00.208Z,8.35
2022-07-27T03:52:27.869Z,9.32
2022-07-27T03:54:55.499Z,10.85
2022-07-27T03:57:23.402Z,17.23
2022-07-27T03:59:51.429Z,16.83
2022-07-27T04:02:19.062Z,9.75
2022-07-27T04:04:46.878Z,12.27
2022-07-27T04:07:14.413Z,9.55
2022-07-27T04:09:41.932Z,9.23
2022-07-27T04:12:12.421Z,9.35
2022-07-27T04:14:39.978Z,8.95
2022-07-27T04:17:10.446Z,9.63
2022-07-27T04:19:38.264Z,10.40
2022-07-27T04:22:05.986Z,10.35
2022-07-27T04:24:34.756Z,9.60
2022-07-27T04:27:02.456Z,10.65
2022-07-27T04:29:30.084Z,11.00
2022-07-27T04:31:57.722Z,9.85
2022-07-27T04:34:25.743Z,10.07
2022-07-27T04:36:53.370Z,9.93
2022-07-27T04:39:21.020Z,9.35
2022-07-27T04:41:48.771Z,10.18
2022-07-27T04:44:16.596Z,9.95
2022-07-27T04:46:44.257Z,9.43
2022-07-27T04:49:12.483Z,10.25
2022-07-27T04:51:43.101Z,10.05
2022-07-27T04:54:11.714Z,10.45
2022-07-27T04:56:39.503Z,9.90
2022-07-27T04:59:07.474Z,9.05
2022-07-27T05:01:35.518Z,9.23
2022-07-27T05:04:05.224Z,9.38
2022-07-27T05:06:33.413Z,8.82
2022-07-27T05:09:01.269Z,8.50
2022-07-27T05:11:29.055Z,8.63
2022-07-27T05:13:56.738Z,8.80
2022-07-27T05:16:28.483Z,9.07
2022-07-27T05:18:57.501Z,8.27
2022-07-27T05:21:25.377Z,8.48
2022-07-27T05:23:53.081Z,8.95
2022-07-27T05:26:22.283Z,8.52
2022-07-27T05:28:49.952Z,8.18
2022-07-27T05:31:18.644Z,8.07
2022-07-27T05:33:49.131Z,7.88
2022-07-27T05:36:18.491Z,6.85
2022-07-27T05:38:46.100Z,7.40
2022-07-27T05:41:13.870Z,7.70
2022-07-27T05:43:41.511Z,7.60
2022-07-27T05:46:09.516Z,7.55
2022-07-27T05:48:37.442Z,6.00
2022-07-27T05:51:05.194Z,6.05
2022-07-27T05:53:33.205Z,6.30
2022-07-27T05:56:00.985Z,6.68
2022-07-27T05:58:29.594Z,6.63
2022-07-27T06:00:57.934Z,6.25
2022-07-27T06:03:26.089Z,6.18
2022-07-27T06:06:13.805Z,6.55
2022-07-27T06:08:41.687Z,7.15
2022-07-27T06:11:09.300Z,6.03
2022-07-27T06:13:37.197Z,5.63
2022-07-27T06:16:09.837Z,5.53
2022-07-27T06:18:37.574Z,5.32
2022-07-27T06:21:05.780Z,4.78
2022-07-27T06:23:33.739Z,6.13
2022-07-27T06:26:01.363Z,5.40
2022-07-27T06:28:29.180Z,4.70
2022-07-27T06:30:57.005Z,4.88
2022-07-27T06:33:29.633Z,4.97
2022-07-27T06:35:58.398Z,6.13
2022-07-27T06:38:27.718Z,5.45
2022-07-27T06:40:56.459Z,5.75
2022-07-27T06:43:25.758Z,5.57
2022-07-27T06:45:58.375Z,6.50
2022-07-27T06:48:26.115Z,5.30
2022-07-27T06:50:53.934Z,5.22
2022-07-27T06:53:22.688Z,4.65
2022-07-27T06:55:50.632Z,5.15
2022-07-27T06:58:19.345Z,4.80
2022-07-27T07:00:47.607Z,5.88
2022-07-27T07:03:15.481Z,6.18
2022-07-27T07:05:45.188Z,6.40
2022-07-27T07:08:14.646Z,5.65
2022-07-27T07:10:43.473Z,5.32
2022-07-27T07:13:11.464Z,5.85
2022-07-27T07:15:40.231Z,5.15
2022-07-27T07:18:08.475Z,6.40
2022-07-27T07:20:36.453Z,5.38
2022-07-27T07:23:04.754Z,8.52
2022-07-27T07:25:32.604Z,5.47
2022-07-27T07:28:00.484Z,4.63
2022-07-27T07:30:28.704Z,5.03
2022-07-27T07:32:56.718Z,5.20
2022-07-27T07:35:24.413Z,5.30
2022-07-27T07:37:52.444Z,4.40
2022-07-27T07:43:08.637Z,4.53
2022-07-27T07:45:38.983Z,5.40
2022-07-27T07:48:19.742Z,4.85
2022-07-27T07:50:52.165Z,5.03
2022-07-27T07:53:22.690Z,5.00
2022-07-27T07:55:50.739Z,4.68
2022-07-27T07:58:19.349Z,5.38
2022-07-27T08:00:47.182Z,5.45
2022-07-27T08:03:15.366Z,4.20
2022-07-27T08:05:43.007Z,5.00
2022-07-27T08:08:11.212Z,4.45
2022-07-27T08:10:39.007Z,4.18
2022-07-27T08:13:06.963Z,4.30
2022-07-27T08:15:36.155Z,3.60
2022-07-27T08:18:05.604Z,3.35
2022-07-27T08:20:34.089Z,3.40
2022-07-27T08:23:01.875Z,3.17
2022-07-27T08:25:29.737Z,3.20
2022-07-27T08:27:57.643Z,3.75
2022-07-27T08:30:25.676Z,3.03
2022-07-27T08:32:55.110Z,2.90
2022-07-27T08:35:23.157Z,3.78
2022-07-27T08:37:57.374Z,3.45
2022-07-27T08:40:44.461Z,3.13
2022-07-27T08:43:20.134Z,3.10
2022-07-27T08:45:54.157Z,2.42
2022-07-27T08:48:22.561Z,3.80
2022-07-27T08:50:50.249Z,4.07
2022-07-27T08:53:18.839Z,3.25
2022-07-27T08:55:48.136Z,4.57
2022-07-27T08:58:16.483Z,4.20
2022-07-27T09:00:45.617Z,3.55
2022-07-27T09:03:19.141Z,4.90
2022-07-27T09:05:50.213Z,3.90
2022-07-27T09:08:38.432Z,3.63
2022-07-27T09:11:14.126Z,2.90
2022-07-27T09:13:42.576Z,3.10
2022-07-27T09:16:20.024Z,3.33
2022-07-27T09:18:49.183Z,4.40
2022-07-27T09:21:17.100Z,3.85
2022-07-27T09:23:48.027Z,3.50
2022-07-27T09:26:35.883Z,4.15
2022-07-27T09:29:11.220Z,4.32
2022-07-27T09:31:46.730Z,4.15
2022-07-27T09:34:15.679Z,3.05
2022-07-27T09:36:54.097Z,4.20
2022-07-27T09:39:22.757Z,4.05
2022-07-27T09:41:52.288Z,3.70
2022-07-27T09:44:34.566Z,3.38
2022-07-27T09:47:27.821Z,3.40
2022-07-27T09:49:59.212Z,3.65
2022-07-27T09:52:28.710Z,3.47
2022-07-27T09:55:14.943Z,2.60
2022-07-27T09:57:55.824Z,3.22
2022-07-27T10:00:24.430Z,3.25
2022-07-27T10:02:52.677Z,2.60
2022-07-27T10:05:22.665Z,3.33
2022-07-27T10:07:51.141Z,3.50
2022-07-27T10:10:18.942Z,3.42
2022-07-27T10:12:53.701Z,2.05
2022-07-27T10:15:23.339Z,2.80
2022-07-27T10:17:55.505Z,2.13
2022-07-27T10:20:23.799Z,2.13
2022-07-27T10:23:01.401Z,2.28
2022-07-27T10:25:37.733Z,3.10
2022-07-27T10:28:09.160Z,2.47
2022-07-27T10:30:37.557Z,3.40
2022-07-27T10:33:15.911Z,2.67
2022-07-27T10:35:43.909Z,2.50
2022-07-27T10:38:13.035Z,2.50
2022-07-27T10:40:41.227Z,2.38
2022-07-27T10:43:11.663Z,3.67
2022-07-27T10:48:40.445Z,2.75
2022-07-27T10:51:10.916Z,3.15
2022-07-27T10:54:09.789Z,2.85
2022-07-27T10:56:48.255Z,4.90
2022-07-27T10:59:16.237Z,6.45
2022-07-27T11:01:57.333Z,5.22
2022-07-27T11:04:25.832Z,3.83
2022-07-27T11:07:23.940Z,3.80
2022-07-27T11:12:35.632Z,3.45
2022-07-27T11:15:03.627Z,5.30
2022-07-27T11:17:56.796Z,3.70
2022-07-27T11:20:23.712Z,4.18
2022-07-27T11:25:40.714Z,3.35
2022-07-27T11:28:08.387Z,3.05
2022-07-27T11:30:36.166Z,4.00
2022-07-27T11:33:05.091Z,3.63
2022-07-27T11:35:32.725Z,2.53
2022-07-27T11:38:05.286Z,3.17
2022-07-27T11:46:15.016Z,2.28
2022-07-27T11:49:09.645Z,3.03
2022-07-27T11:51:48.112Z,3.80
2022-07-27T11:54:20.033Z,3.88
2022-07-27T11:56:52.101Z,2.75
2022-07-27T11:59:20.723Z,4.18
2022-07-27T12:01:55.727Z,3.10
2022-07-27T12:04:25.070Z,3.47
2022-07-27T12:07:01.957Z,3.75
2022-07-27T12:09:36.733Z,3.20
2022-07-27T12:12:11.319Z,3.60
2022-07-27T12:14:39.811Z,3.03
2022-07-27T12:17:08.801Z,3.20
2022-07-27T12:19:36.419Z,3.28
2022-07-27T12:22:04.400Z,2.80
2022-07-27T12:24:37.121Z,3.65
2022-07-27T12:27:09.923Z,4.95
2022-07-27T12:29:56.029Z,4.35
2022-07-27T12:32:23.917Z,4.40
2022-07-27T12:34:51.871Z,5.18
2022-07-27T12:37:19.887Z,4.72
2022-07-27T12:39:47.863Z,4.90
2022-07-27T12:42:15.796Z,5.18
2022-07-27T12:44:44.822Z,6.55
2022-07-27T12:47:31.322Z,6.65
2022-07-27T12:50:13.649Z,7.00
2022-07-27T12:52:44.741Z,6.72
2022-07-27T12:55:15.897Z,6.60
2022-07-27T12:57:55.802Z,6.95
2022-07-27T13:00:29.458Z,5.85
2022-07-27T13:03:01.280Z,6.90
2022-07-27T13:05:29.090Z,5.13
2022-07-27T13:07:56.910Z,5.80
2022-07-27T13:10:24.469Z,7.15
2022-07-27T13:12:56.191Z,7.63
2022-07-27T13:15:23.797Z,8.35
2022-07-27T13:17:51.457Z,6.72
2022-07-27T13:20:19.530Z,6.57
2022-07-27T13:22:47.679Z,6.70
2022-07-27T13:25:17.327Z,6.18
2022-07-27T13:27:46.585Z,5.30
2022-07-27T13:30:15.873Z,6.85
2022-07-27T13:32:46.935Z,7.90
2022-07-27T13:35:16.628Z,8.43
2022-07-27T13:38:03.754Z,7.45
2022-07-27T13:40:31.555Z,6.38
2022-07-27T13:42:59.099Z,6.25
2022-07-27T13:45:26.709Z,5.78
2022-07-27T13:47:54.659Z,6.03
2022-07-27T13:50:22.479Z,5.75
2022-07-27T13:52:50.300Z,6.60
2022-07-27T13:55:18.816Z,4.82
2022-07-27T13:57:47.303Z,5.68
2022-07-27T14:00:15.306Z,6.05
2022-07-27T14:02:46.321Z,6.05
2022-07-27T14:05:14.480Z,5.95
2022-07-27T14:07:44.305Z,5.07
2022-07-27T14:10:31.564Z,5.47
2022-07-27T14:13:07.892Z,5.78
2022-07-27T14:15:52.968Z,6.82
2022-07-27T14:18:24.847Z,6.30
2022-07-27T14:20:52.661Z,6.20
2022-07-27T14:23:21.156Z,7.00
2022-07-27T14:25:49.005Z,6.88
2022-07-27T14:28:17.023Z,6.13
2022-07-27T14:30:44.880Z,5.70
2022-07-27T14:33:13.022Z,6.60
2022-07-27T14:35:41.118Z,6.95
2022-07-27T14:38:09.417Z,5.88
2022-07-27T14:40:37.628Z,5.80
2022-07-27T14:43:06.322Z,6.90
2022-07-27T14:45:44.935Z,6.40
2022-07-27T14:48:28.248Z,5.33
2022-07-27T14:51:00.857Z,6.10
2022-07-27T14:53:28.683Z,6.65
2022-07-27T14:55:56.243Z,6.97
2022-07-27T14:58:23.932Z,6.85
2022-07-27T15:00:52.687Z,6.53
2022-07-27T15:03:21.245Z,6.35
2022-07-27T15:05:50.158Z,6.63
2022-07-27T15:08:21.857Z,6.05
2022-07-27T15:10:49.966Z,6.50
2022-07-27T15:13:18.200Z,5.78
2022-07-27T15:15:48.832Z,5.88
2022-07-27T15:18:19.618Z,5.25
2022-07-27T15:20:50.324Z,5.30
2022-07-27T15:23:18.436Z,5.80
2022-07-27T15:25:46.168Z,5.93
2022-07-27T15:28:16.186Z,5.65
2022-07-27T15:30:43.971Z,6.00
2022-07-27T15:33:12.683Z,5.38
2022-07-27T15:35:40.217Z,5.53
2022-07-27T15:38:08.201Z,5.35
2022-07-27T15:40:38.873Z,5.47
2022-07-27T15:43:07.453Z,5.60
2022-07-27T15:45:41.126Z,5.95
2022-07-27T15:48:09.642Z,5.80
2022-07-27T15:50:38.167Z,5.50
2022-07-27T15:53:06.514Z,5.88
2022-07-27T15:55:34.389Z,7.05
2022-07-27T15:58:02.198Z,6.70
2022-07-27T16:00:29.756Z,6.35
2022-07-27T16:02:57.381Z,6.50
2022-07-27T16:05:25.503Z,6.55
2022-07-27T16:07:53.991Z,6.40
2022-07-27T16:10:21.582Z,6.63
2022-07-27T16:12:51.059Z,6.72
2022-07-27T16:15:40.373Z,7.30
2022-07-27T16:18:09.785Z,7.18
2022-07-27T16:20:37.474Z,6.68
2022-07-27T16:23:18.905Z,6.78
2022-07-27T16:26:04.114Z,8.40
2022-07-27T16:28:34.037Z,6.82
2022-07-27T16:31:02.101Z,6.93
2022-07-27T16:33:30.370Z,8.00
2022-07-27T16:35:58.311Z,6.80
2022-07-27T16:38:26.166Z,6.85
2022-07-27T16:40:53.834Z,7.05
2022-07-27T16:43:21.475Z,7.03
2022-07-27T16:45:49.212Z,6.47
2022-07-27T16:48:18.480Z,6.80
2022-07-27T16:50:46.053Z,6.95
2022-07-27T16:53:13.903Z,6.97
2022-07-27T16:55:41.433Z,6.68
2022-07-27T16:58:10.191Z,6.63
2022-07-27T17:00:38.976Z,6.97
2022-07-27T17:03:06.830Z,6.75
2022-07-27T17:05:35.066Z,6.93
2022-07-27T17:08:02.859Z,6.70
2022-07-27T17:10:30.461Z,7.05
2022-07-27T17:12:58.152Z,6.78
2022-07-27T17:15:26.582Z,6.80
2022-07-27T17:17:54.901Z,6.82
2022-07-27T17:20:32.953Z,6.88
2022-07-27T17:23:03.840Z,7.60
2022-07-27T17:25:31.488Z,6.80
2022-07-27T17:27:59.121Z,7.32
2022-07-27T17:30:27.536Z,7.47
2022-07-27T17:32:55.882Z,6.97
2022-07-27T17:35:24.309Z,7.40
2022-07-27T17:38:07.648Z,7.03
2022-07-27T17:40:38.420Z,7.60
2022-07-27T17:43:06.276Z,7.15
2022-07-27T17:45:33.804Z,7.05
2022-07-27T17:48:01.465Z,7.13
2022-07-27T17:50:29.240Z,7.43
2022-07-27T17:52:58.937Z,7.15
2022-07-27T17:55:26.491Z,7.53
2022-07-27T17:57:54.375Z,7.90
2022-07-27T18:00:23.577Z,8.95
2022-07-27T18:02:51.269Z,8.63
2022-07-27T18:05:19.112Z,7.90
2022-07-27T18:07:46.994Z,8.18
2022-07-27T18:10:14.852Z,8.55
2022-07-27T18:12:42.636Z,8.40
2022-07-27T18:15:29.331Z,7.95
2022-07-27T18:17:58.880Z,8.82
2022-07-27T18:20:27.486Z,8.48
2022-07-27T18:22:55.106Z,9.45
2022-07-27T18:25:24.522Z,8.85
2022-07-27T18:27:52.267Z,8.70
2022-07-27T18:30:19.909Z,9.20
2022-07-27T18:32:47.704Z,9.45
2022-07-27T18:35:15.950Z,8.60
2022-07-27T18:37:44.776Z,10.25
2022-07-27T18:40:12.893Z,10.98
2022-07-27T18:42:40.939Z,14.77
2022-07-27T18:45:09.600Z,14.02
2022-07-27T18:47:37.628Z,12.68
2022-07-27T18:50:06.437Z,9.48
2022-07-27T18:52:34.258Z,7.72
2022-07-27T18:55:02.241Z,6.75
2022-07-27T18:57:29.938Z,6.22
2022-07-27T18:59:57.613Z,6.65
2022-07-27T19:02:25.609Z,5.10
2022-07-27T19:04:54.054Z,4.25
2022-07-27T19:07:23.976Z,4.43
2022-07-27T19:09:52.950Z,3.90
2022-07-27T19:12:20.624Z,4.10
2022-07-27T19:14:51.169Z,3.50
2022-07-27T19:17:19.862Z,4.15
2022-07-27T19:19:47.621Z,3.90
2022-07-27T19:22:15.375Z,4.70
2022-07-27T19:24:43.546Z,4.57
2022-07-27T19:27:11.183Z,6.30
2022-07-27T19:29:38.890Z,5.57
2022-07-27T19:32:08.261Z,4.93
2022-07-27T19:34:36.677Z,3.92
2022-07-27T19:37:04.423Z,4.50
2022-07-27T19:39:57.165Z,4.38
2022-07-27T19:42:24.053Z,19.77
2022-07-27T19:44:51.822Z,14.15
2022-07-27T19:47:20.371Z,8.70
2022-07-27T19:49:48.597Z,7.45
2022-07-27T19:52:16.453Z,7.35
2022-07-27T19:54:44.299Z,7.97
2022-07-27T19:57:11.957Z,7.72
2022-07-27T19:59:55.290Z,5.80
2022-07-27T20:02:25.074Z,4.90
2022-07-27T20:04:53.024Z,5.20
2022-07-27T20:07:20.649Z,5.97
2022-07-27T20:09:49.347Z,6.32
2022-07-27T20:12:17.147Z,6.53
2022-07-27T20:14:44.821Z,6.00
2022-07-27T20:17:12.659Z,6.53
2022-07-27T20:19:40.507Z,8.60
2022-07-27T20:22:08.747Z,7.25
2022-07-27T20:24:36.346Z,7.55
2022-07-27T20:27:04.230Z,7.95
2022-07-27T20:29:33.229Z,8.05
2022-07-27T20:32:00.924Z,7.38
2022-07-27T20:34:28.783Z,7.50
2022-07-27T20:36:57.000Z,9.07
2022-07-27T20:39:25.848Z,8.38
2022-07-27T20:41:53.909Z,7.45
2022-07-27T20:44:21.564Z,8.73
2022-07-27T20:46:49.176Z,8.45
2022-07-27T20:49:17.781Z,10.30
2022-07-27T20:51:45.781Z,7.72
2022-07-27T20:54:13.937Z,7.07
2022-07-27T20:56:41.771Z,7.70
2022-07-27T20:59:16.829Z,8.57
2022-07-27T21:01:45.174Z,9.60
2022-07-27T21:04:12.873Z,8.57
2022-07-27T21:06:40.732Z,9.20
2022-07-27T21:09:08.840Z,8.82
2022-07-27T21:11:36.549Z,8.82
2022-07-27T21:14:05.337Z,9.32
2022-07-27T21:16:33.266Z,8.27
2022-07-27T21:19:00.969Z,8.65
2022-07-27T21:21:28.694Z,8.82
2022-07-27T21:24:15.587Z,8.75
2022-07-27T21:26:46.645Z,9.40
2022-07-27T21:29:16.933Z,8.23
2022-07-27T21:31:48.218Z,8.30
2022-07-27T21:34:19.469Z,7.95
2022-07-27T21:36:48.065Z,8.93
2022-07-27T21:39:17.935Z,9.05
2022-07-27T21:41:45.595Z,8.98
2022-07-27T21:44:13.748Z,8.32
2022-07-27T21:46:41.710Z,7.93
2022-07-27T21:49:10.506Z,7.85
2022-07-27T21:51:38.328Z,8.13
2022-07-27T21:54:06.904Z,7.78
2022-07-27T21:56:41.937Z,7.60
2022-07-27T21:59:10.412Z,7.45
2022-07-27T22:01:38.142Z,5.60
2022-07-27T22:04:06.337Z,5.30
2022-07-27T22:06:34.202Z,5.53
2022-07-27T22:09:01.823Z,5.25
2022-07-27T22:11:29.395Z,6.45
2022-07-27T22:13:57.228Z,6.22
2022-07-27T22:16:24.968Z,5.68
2022-07-27T22:18:52.547Z,5.38
2022-07-27T22:21:21.611Z,5.72
2022-07-27T22:23:49.465Z,5.32
2022-07-27T22:26:17.462Z,5.78
2022-07-27T22:28:45.244Z,5.05
2022-07-27T22:31:21.293Z,5.43
2022-07-27T22:33:51.290Z,5.10
2022-07-27T22:36:18.895Z,4.50
2022-07-27T22:38:46.499Z,5.13
2022-07-27T22:41:14.398Z,4.78
2022-07-27T22:43:42.032Z,5.03
2022-07-27T22:46:10.022Z,4.55
2022-07-27T22:48:38.209Z,4.30
2022-07-27T22:51:05.764Z,4.18
2022-07-27T22:53:33.325Z,4.10
2022-07-27T22:56:01.044Z,4.38
2022-07-27T22:58:28.779Z,7.32
2022-07-27T23:00:59.697Z,5.90
2022-07-27T23:03:27.968Z,4.63
2022-07-27T23:05:55.548Z,4.70
2022-07-27T23:08:23.236Z,6.53
2022-07-27T23:10:50.996Z,6.18
2022-07-27T23:13:19.307Z,6.72
2022-07-27T23:15:47.696Z,5.10
2022-07-27T23:18:17.834Z,9.68
2022-07-27T23:20:45.848Z,5.05
2022-07-27T23:23:16.634Z,6.40
2022-07-27T23:25:48.395Z,4.28
2022-07-27T23:28:17.048Z,6.20
2022-07-27T23:30:45.240Z,4.90
2022-07-27T23:33:13.035Z,7.15
2022-07-27T23:35:42.224Z,4.45
2022-07-27T23:38:09.822Z,5.25
2022-07-27T23:40:37.749Z,4.53
2022-07-27T23:43:05.303Z,5.15
2022-07-27T23:45:34.611Z,4.18
2022-07-27T23:48:02.798Z,4.20
2022-07-27T23:50:30.337Z,4.60
2022-07-27T23:52:57.953Z,4.20
2022-07-27T23:55:26.900Z,3.72
2022-07-27T23:57:55.328Z,3.80
